sensor_id;sensor_type;location;lat;lon;timestamp;P1;durP1;ratioP1;P2;durP2;ratioP2
6358;SDS011;3212;51.460;11.868;2022-07-29T00:02:22;2.87;;;1.80;;
6358;SDS011;3212;51.460;11.868;2022-07-29T00:05:44;4.27;;;1.70;;
6358;SDS011;3212;51.460;11.868;2022-07-29T00:09:07;5.03;;;1.70;;
6358;SDS011;3212;51.460;11.868;2022-07-29T00:12:29;1.70;;;1.60;;
6358;SDS011;3212;51.460;11.868;2022-07-29T00:15:52;4.73;;;1.73;;
6358;SDS011;3212;51.460;11.868;2022-07-29T00:19:14;3.93;;;1.67;;
6358;SDS011;3212;51.460;11.868;2022-07-29T00:22:38;7.90;;;1.60;;
6358;SDS011;3212;51.460;11.868;2022-07-29T00:26:00;2.07;;;1.70;;
6358;SDS011;3212;51.460;11.868;2022-07-29T00:29:22;3.90;;;2.00;;
6358;SDS011;3212;51.460;11.868;2022-07-29T00:32:45;5.33;;;1.90;;
6358;SDS011;3212;51.460;11.868;2022-07-29T00:36:09;3.30;;;1.57;;
6358;SDS011;3212;51.460;11.868;2022-07-29T00:39:31;7.97;;;2.30;;
6358;SDS011;3212;51.460;11.868;2022-07-29T00:42:53;4.40;;;2.00;;
6358;SDS011;3212;51.460;11.868;2022-07-29T00:46:16;1.93;;;1.83;;
6358;SDS011;3212;51.460;11.868;2022-07-29T00:49:40;1.90;;;1.70;;
6358;SDS011;3212;51.460;11.868;2022-07-29T00:53:02;3.47;;;1.90;;
6358;SDS011;3212;51.460;11.868;2022-07-29T00:56:24;3.77;;;1.60;;
6358;SDS011;3212;51.460;11.868;2022-07-29T00:59:47;2.40;;;1.80;;
6358;SDS011;3212;51.460;11.868;2022-07-29T01:03:09;3.40;;;1.90;;
6358;SDS011;3212;51.460;11.868;2022-07-29T01:06:32;5.23;;;1.80;;
6358;SDS011;3212;51.460;11.868;2022-07-29T01:09:54;4.50;;;1.80;;
6358;SDS011;3212;51.460;11.868;2022-07-29T01:13:18;3.73;;;1.97;;
6358;SDS011;3212;51.460;11.868;2022-07-29T01:16:45;2.40;;;2.07;;
6358;SDS011;3212;51.460;11.868;2022-07-29T01:27:30;2.60;;;1.98;;
6358;SDS011;3212;51.460;11.868;2022-07-29T01:30:53;5.27;;;1.80;;
6358;SDS011;3212;51.460;11.868;2022-07-29T01:34:21;4.30;;;1.73;;
6358;SDS011;3212;51.460;11.868;2022-07-29T01:37:44;2.83;;;1.90;;
6358;SDS011;3212;51.460;11.868;2022-07-29T01:41:07;4.20;;;2.30;;
6358;SDS011;3212;51.460;11.868;2022-07-29T01:44:32;2.80;;;1.90;;
6358;SDS011;3212;51.460;11.868;2022-07-29T01:47:56;2.30;;;1.93;;
6358;SDS011;3212;51.460;11.868;2022-07-29T01:51:29;2.83;;;2.07;;
6358;SDS011;3212;51.460;11.868;2022-07-29T01:54:55;2.10;;;1.87;;
6358;SDS011;3212;51.460;11.868;2022-07-29T01:58:16;2.73;;;1.70;;
6358;SDS011;3212;51.460;11.868;2022-07-29T02:01:39;4.63;;;1.80;;
6358;SDS011;3212;51.460;11.868;2022-07-29T02:05:02;2.13;;;1.93;;
6358;SDS011;3212;51.460;11.868;2022-07-29T02:08:24;4.77;;;2.00;;
6358;SDS011;3212;51.460;11.868;2022-07-29T02:11:49;4.17;;;2.30;;
6358;SDS011;3212;51.460;11.868;2022-07-29T02:15:11;4.23;;;2.10;;
6358;SDS011;3212;51.460;11.868;2022-07-29T02:18:33;2.70;;;1.93;;
6358;SDS011;3212;51.460;11.868;2022-07-29T02:21:56;8.60;;;2.13;;
6358;SDS011;3212;51.460;11.868;2022-07-29T02:25:18;5.90;;;1.90;;
6358;SDS011;3212;51.460;11.868;2022-07-29T02:28:41;5.00;;;2.00;;
6358;SDS011;3212;51.460;11.868;2022-07-29T02:32:03;3.47;;;2.23;;
6358;SDS011;3212;51.460;11.868;2022-07-29T02:35:27;3.03;;;2.23;;
6358;SDS011;3212;51.460;11.868;2022-07-29T02:38:49;3.55;;;2.03;;
6358;SDS011;3212;51.460;11.868;2022-07-29T02:42:13;5.30;;;2.00;;
6358;SDS011;3212;51.460;11.868;2022-07-29T02:45:35;3.27;;;2.20;;
6358;SDS011;3212;51.460;11.868;2022-07-29T02:52:34;3.53;;;2.30;;
6358;SDS011;3212;51.460;11.868;2022-07-29T02:55:56;2.40;;;1.90;;
6358;SDS011;3212;51.460;11.868;2022-07-29T02:59:18;2.63;;;2.03;;
6358;SDS011;3212;51.460;11.868;2022-07-29T03:02:42;3.13;;;1.83;;
6358;SDS011;3212;51.460;11.868;2022-07-29T03:06:03;2.90;;;2.00;;
6358;SDS011;3212;51.460;11.868;2022-07-29T03:09:25;4.70;;;2.20;;
6358;SDS011;3212;51.460;11.868;2022-07-29T03:12:48;3.10;;;2.00;;
6358;SDS011;3212;51.460;11.868;2022-07-29T03:16:10;3.57;;;2.03;;
6358;SDS011;3212;51.460;11.868;2022-07-29T03:19:32;5.83;;;2.23;;
6358;SDS011;3212;51.460;11.868;2022-07-29T03:22:55;5.43;;;2.00;;
6358;SDS011;3212;51.460;11.868;2022-07-29T03:26:18;3.93;;;2.20;;
6358;SDS011;3212;51.460;11.868;2022-07-29T03:29:42;4.37;;;2.13;;
6358;SDS011;3212;51.460;11.868;2022-07-29T03:33:04;3.85;;;2.37;;
6358;SDS011;3212;51.460;11.868;2022-07-29T03:36:27;4.80;;;2.33;;
6358;SDS011;3212;51.460;11.868;2022-07-29T03:39:49;3.43;;;2.20;;
6358;SDS011;3212;51.460;11.868;2022-07-29T03:43:12;5.53;;;2.50;;
6358;SDS011;3212;51.460;11.868;2022-07-29T03:46:34;3.67;;;2.00;;
6358;SDS011;3212;51.460;11.868;2022-07-29T03:50:00;3.00;;;1.70;;
6358;SDS011;3212;51.460;11.868;2022-07-29T03:53:19;3.50;;;2.20;;
6358;SDS011;3212;51.460;11.868;2022-07-29T03:56:43;5.27;;;2.17;;
6358;SDS011;3212;51.460;11.868;2022-07-29T04:00:05;8.40;;;2.57;;
6358;SDS011;3212;51.460;11.868;2022-07-29T04:03:28;4.47;;;2.07;;
6358;SDS011;3212;51.460;11.868;2022-07-29T04:06:51;2.80;;;2.10;;
6358;SDS011;3212;51.460;11.868;2022-07-29T04:10:14;2.47;;;2.27;;
6358;SDS011;3212;51.460;11.868;2022-07-29T04:13:35;4.73;;;2.37;;
6358;SDS011;3212;51.460;11.868;2022-07-29T04:16:58;3.97;;;2.10;;
6358;SDS011;3212;51.460;11.868;2022-07-29T04:20:20;8.07;;;2.53;;
6358;SDS011;3212;51.460;11.868;2022-07-29T04:23:43;2.20;;;2.00;;
6358;SDS011;3212;51.460;11.868;2022-07-29T04:27:05;4.60;;;2.40;;
6358;SDS011;3212;51.460;11.868;2022-07-29T04:30:28;2.67;;;2.10;;
6358;SDS011;3212;51.460;11.868;2022-07-29T04:33:51;5.73;;;2.20;;
6358;SDS011;3212;51.460;11.868;2022-07-29T04:37:14;7.43;;;2.33;;
6358;SDS011;3212;51.460;11.868;2022-07-29T04:40:36;2.33;;;2.13;;
6358;SDS011;3212;51.460;11.868;2022-07-29T04:43:59;4.73;;;2.40;;
6358;SDS011;3212;51.460;11.868;2022-07-29T04:47:22;4.63;;;2.83;;
6358;SDS011;3212;51.460;11.868;2022-07-29T04:50:44;2.77;;;2.13;;
6358;SDS011;3212;51.460;11.868;2022-07-29T04:54:07;3.70;;;2.30;;
6358;SDS011;3212;51.460;11.868;2022-07-29T04:57:29;2.20;;;1.80;;
6358;SDS011;3212;51.460;11.868;2022-07-29T05:00:52;3.40;;;2.00;;
6358;SDS011;3212;51.460;11.868;2022-07-29T05:04:15;4.43;;;2.33;;
6358;SDS011;3212;51.460;11.868;2022-07-29T05:07:37;2.80;;;2.10;;
6358;SDS011;3212;51.460;11.868;2022-07-29T05:10:59;3.30;;;2.43;;
6358;SDS011;3212;51.460;11.868;2022-07-29T05:14:22;4.93;;;2.30;;
6358;SDS011;3212;51.460;11.868;2022-07-29T05:17:45;2.83;;;2.30;;
6358;SDS011;3212;51.460;11.868;2022-07-29T05:21:08;3.43;;;2.10;;
6358;SDS011;3212;51.460;11.868;2022-07-29T05:24:31;2.80;;;2.17;;
6358;SDS011;3212;51.460;11.868;2022-07-29T05:27:54;8.00;;;2.60;;
6358;SDS011;3212;51.460;11.868;2022-07-29T05:31:18;2.12;;;1.92;;
6358;SDS011;3212;51.460;11.868;2022-07-29T05:34:40;2.97;;;2.00;;
6358;SDS011;3212;51.460;11.868;2022-07-29T05:38:03;6.00;;;2.23;;
6358;SDS011;3212;51.460;11.868;2022-07-29T05:41:25;4.33;;;2.60;;
6358;SDS011;3212;51.460;11.868;2022-07-29T05:44:48;7.93;;;2.30;;
6358;SDS011;3212;51.460;11.868;2022-07-29T05:48:11;3.03;;;1.87;;
6358;SDS011;3212;51.460;11.868;2022-07-29T05:51:34;4.70;;;2.20;;
6358;SDS011;3212;51.460;11.868;2022-07-29T05:54:56;3.07;;;2.23;;
6358;SDS011;3212;51.460;11.868;2022-07-29T05:58:19;5.20;;;2.40;;
6358;SDS011;3212;51.460;11.868;2022-07-29T06:01:41;5.00;;;2.33;;
6358;SDS011;3212;51.460;11.868;2022-07-29T06:05:04;5.00;;;2.67;;
6358;SDS011;3212;51.460;11.868;2022-07-29T06:08:26;3.63;;;2.37;;
6358;SDS011;3212;51.460;11.868;2022-07-29T06:11:49;3.10;;;2.23;;
6358;SDS011;3212;51.460;11.868;2022-07-29T06:15:11;3.17;;;2.33;;
6358;SDS011;3212;51.460;11.868;2022-07-29T06:18:34;4.90;;;2.23;;
6358;SDS011;3212;51.460;11.868;2022-07-29T06:21:57;4.47;;;2.40;;
6358;SDS011;3212;51.460;11.868;2022-07-29T06:25:19;2.30;;;2.10;;
6358;SDS011;3212;51.460;11.868;2022-07-29T06:28:42;5.37;;;2.43;;
6358;SDS011;3212;51.460;11.868;2022-07-29T06:32:05;2.90;;;2.40;;
6358;SDS011;3212;51.460;11.868;2022-07-29T06:35:27;5.90;;;2.30;;
6358;SDS011;3212;51.460;11.868;2022-07-29T06:38:50;3.87;;;2.60;;
6358;SDS011;3212;51.460;11.868;2022-07-29T06:42:12;3.20;;;2.53;;
6358;SDS011;3212;51.460;11.868;2022-07-29T06:45:34;4.47;;;2.63;;
6358;SDS011;3212;51.460;11.868;2022-07-29T06:48:57;5.37;;;2.63;;
6358;SDS011;3212;51.460;11.868;2022-07-29T06:52:19;6.20;;;2.67;;
6358;SDS011;3212;51.460;11.868;2022-07-29T06:55:42;4.50;;;2.30;;
6358;SDS011;3212;51.460;11.868;2022-07-29T06:59:04;3.73;;;2.17;;
6358;SDS011;3212;51.460;11.868;2022-07-29T07:02:26;4.40;;;2.83;;
6358;SDS011;3212;51.460;11.868;2022-07-29T07:05:49;2.43;;;2.23;;
6358;SDS011;3212;51.460;11.868;2022-07-29T07:09:11;14.43;;;3.65;;
6358;SDS011;3212;51.460;11.868;2022-07-29T07:12:34;5.70;;;2.53;;
6358;SDS011;3212;51.460;11.868;2022-07-29T07:15:57;2.40;;;2.20;;
6358;SDS011;3212;51.460;11.868;2022-07-29T07:19:20;6.00;;;2.57;;
6358;SDS011;3212;51.460;11.868;2022-07-29T07:22:42;7.17;;;2.70;;
6358;SDS011;3212;51.460;11.868;2022-07-29T07:26:05;3.67;;;2.30;;
6358;SDS011;3212;51.460;11.868;2022-07-29T07:29:27;3.50;;;2.60;;
6358;SDS011;3212;51.460;11.868;2022-07-29T07:32:50;11.47;;;7.20;;
6358;SDS011;3212;51.460;11.868;2022-07-29T07:36:12;3.47;;;2.50;;
6358;SDS011;3212;51.460;11.868;2022-07-29T07:39:34;5.27;;;2.27;;
6358;SDS011;3212;51.460;11.868;2022-07-29T07:42:57;7.53;;;2.90;;
6358;SDS011;3212;51.460;11.868;2022-07-29T07:46:20;4.87;;;2.10;;
6358;SDS011;3212;51.460;11.868;2022-07-29T07:49:42;4.17;;;2.67;;
6358;SDS011;3212;51.460;11.868;2022-07-29T07:53:05;6.18;;;2.50;;
6358;SDS011;3212;51.460;11.868;2022-07-29T07:56:27;6.43;;;4.17;;
6358;SDS011;3212;51.460;11.868;2022-07-29T07:59:50;10.30;;;3.80;;
6358;SDS011;3212;51.460;11.868;2022-07-29T08:03:13;5.30;;;4.27;;
6358;SDS011;3212;51.460;11.868;2022-07-29T08:06:35;11.63;;;4.27;;
6358;SDS011;3212;51.460;11.868;2022-07-29T08:09:58;8.27;;;3.93;;
6358;SDS011;3212;51.460;11.868;2022-07-29T08:13:22;9.27;;;4.80;;
6358;SDS011;3212;51.460;11.868;2022-07-29T08:16:43;6.73;;;4.20;;
6358;SDS011;3212;51.460;11.868;2022-07-29T08:20:06;7.23;;;5.83;;
6358;SDS011;3212;51.460;11.868;2022-07-29T08:23:29;10.43;;;6.10;;
6358;SDS011;3212;51.460;11.868;2022-07-29T08:26:53;10.57;;;5.40;;
6358;SDS011;3212;51.460;11.868;2022-07-29T08:30:17;9.90;;;6.10;;
6358;SDS011;3212;51.460;11.868;2022-07-29T08:33:39;13.43;;;7.40;;
6358;SDS011;3212;51.460;11.868;2022-07-29T08:37:02;14.87;;;8.47;;
6358;SDS011;3212;51.460;11.868;2022-07-29T08:40:24;17.27;;;8.87;;
6358;SDS011;3212;51.460;11.868;2022-07-29T08:43:47;13.90;;;7.50;;
6358;SDS011;3212;51.460;11.868;2022-07-29T08:47:10;12.23;;;8.17;;
6358;SDS011;3212;51.460;11.868;2022-07-29T08:50:34;12.40;;;7.10;;
6358;SDS011;3212;51.460;11.868;2022-07-29T08:53:55;11.37;;;7.33;;
6358;SDS011;3212;51.460;11.868;2022-07-29T08:57:17;12.13;;;7.10;;
6358;SDS011;3212;51.460;11.868;2022-07-29T09:00:41;10.47;;;6.73;;
6358;SDS011;3212;51.460;11.868;2022-07-29T09:04:03;10.57;;;7.40;;
6358;SDS011;3212;51.460;11.868;2022-07-29T09:07:25;10.67;;;6.30;;
6358;SDS011;3212;51.460;11.868;2022-07-29T09:10:49;10.73;;;6.37;;
6358;SDS011;3212;51.460;11.868;2022-07-29T09:14:12;7.00;;;5.53;;
6358;SDS011;3212;51.460;11.868;2022-07-29T09:17:39;8.43;;;5.40;;
6358;SDS011;3212;51.460;11.868;2022-07-29T09:21:05;6.37;;;4.60;;
6358;SDS011;3212;51.460;11.868;2022-07-29T09:24:37;8.63;;;4.67;;
6358;SDS011;3212;51.460;11.868;2022-07-29T09:31:32;6.27;;;4.43;;
6358;SDS011;3212;51.460;11.868;2022-07-29T09:38:37;8.47;;;3.90;;
6358;SDS011;3212;51.460;11.868;2022-07-29T09:42:01;5.13;;;3.53;;
6358;SDS011;3212;51.460;11.868;2022-07-29T09:45:28;4.20;;;2.90;;
6358;SDS011;3212;51.460;11.868;2022-07-29T09:52:25;3.93;;;3.40;;
6358;SDS011;3212;51.460;11.868;2022-07-29T09:55:47;3.90;;;3.50;;
6358;SDS011;3212;51.460;11.868;2022-07-29T09:59:10;6.07;;;3.10;;
6358;SDS011;3212;51.460;11.868;2022-07-29T10:02:34;3.87;;;3.47;;
6358;SDS011;3212;51.460;11.868;2022-07-29T10:09:27;6.40;;;3.07;;
6358;SDS011;3212;51.460;11.868;2022-07-29T10:12:52;4.70;;;3.00;;
6358;SDS011;3212;51.460;11.868;2022-07-29T10:16:15;6.37;;;3.40;;
6358;SDS011;3212;51.460;11.868;2022-07-29T10:19:37;5.20;;;3.40;;
6358;SDS011;3212;51.460;11.868;2022-07-29T10:23:00;8.67;;;3.73;;
6358;SDS011;3212;51.460;11.868;2022-07-29T10:26:23;4.13;;;3.73;;
6358;SDS011;3212;51.460;11.868;2022-07-29T10:29:46;6.53;;;5.00;;
6358;SDS011;3212;51.460;11.868;2022-07-29T10:33:16;8.83;;;5.53;;
6358;SDS011;3212;51.460;11.868;2022-07-29T10:36:43;13.37;;;8.50;;
6358;SDS011;3212;51.460;11.868;2022-07-29T10:40:11;12.57;;;10.07;;
6358;SDS011;3212;51.460;11.868;2022-07-29T10:43:47;22.17;;;13.37;;
6358;SDS011;3212;51.460;11.868;2022-07-29T10:54:16;17.33;;;10.90;;
6358;SDS011;3212;51.460;11.868;2022-07-29T10:57:39;14.70;;;11.33;;
6358;SDS011;3212;51.460;11.868;2022-07-29T11:01:04;15.53;;;10.93;;
6358;SDS011;3212;51.460;11.868;2022-07-29T11:11:42;7.40;;;4.07;;
6358;SDS011;3212;51.460;11.868;2022-07-29T11:15:06;7.00;;;4.47;;
6358;SDS011;3212;51.460;11.868;2022-07-29T11:18:28;4.00;;;3.20;;
6358;SDS011;3212;51.460;11.868;2022-07-29T11:21:50;5.10;;;3.60;;
6358;SDS011;3212;51.460;11.868;2022-07-29T11:25:14;7.73;;;3.40;;
6358;SDS011;3212;51.460;11.868;2022-07-29T11:28:48;5.07;;;3.30;;
6358;SDS011;3212;51.460;11.868;2022-07-29T11:32:19;4.13;;;2.90;;
6358;SDS011;3212;51.460;11.868;2022-07-29T11:35:41;4.30;;;2.23;;
6358;SDS011;3212;51.460;11.868;2022-07-29T11:42:46;7.80;;;2.73;;
6358;SDS011;3212;51.460;11.868;2022-07-29T11:46:09;4.00;;;2.80;;
6358;SDS011;3212;51.460;11.868;2022-07-29T11:49:32;2.57;;;2.37;;
6358;SDS011;3212;51.460;11.868;2022-07-29T11:52:54;3.12;;;2.65;;
6358;SDS011;3212;51.460;11.868;2022-07-29T11:56:17;3.27;;;2.87;;
6358;SDS011;3212;51.460;11.868;2022-07-29T11:59:40;5.10;;;2.53;;
6358;SDS011;3212;51.460;11.868;2022-07-29T12:03:04;3.70;;;2.50;;
6358;SDS011;3212;51.460;11.868;2022-07-29T12:06:26;4.57;;;3.00;;
6358;SDS011;3212;51.460;11.868;2022-07-29T12:09:49;5.50;;;3.03;;
6358;SDS011;3212;51.460;11.868;2022-07-29T12:13:11;4.97;;;2.53;;
6358;SDS011;3212;51.460;11.868;2022-07-29T12:16:35;2.70;;;2.50;;
6358;SDS011;3212;51.460;11.868;2022-07-29T12:19:59;4.40;;;2.60;;
6358;SDS011;3212;51.460;11.868;2022-07-29T12:23:20;4.03;;;2.63;;
6358;SDS011;3212;51.460;11.868;2022-07-29T12:26:50;3.90;;;2.13;;
6358;SDS011;3212;51.460;11.868;2022-07-29T12:30:14;3.13;;;2.47;;
6358;SDS011;3212;51.460;11.868;2022-07-29T12:33:36;3.83;;;2.33;;
6358;SDS011;3212;51.460;11.868;2022-07-29T12:36:58;6.43;;;2.40;;
6358;SDS011;3212;51.460;11.868;2022-07-29T12:40:21;2.53;;;2.33;;
6358;SDS011;3212;51.460;11.868;2022-07-29T12:47:14;3.40;;;3.10;;
6358;SDS011;3212;51.460;11.868;2022-07-29T12:50:53;3.00;;;2.80;;
6358;SDS011;3212;51.460;11.868;2022-07-29T12:54:02;2.43;;;2.33;;
6358;SDS011;3212;51.460;11.868;2022-07-29T12:57:24;2.50;;;2.20;;
6358;SDS011;3212;51.460;11.868;2022-07-29T13:00:46;4.50;;;2.57;;
6358;SDS011;3212;51.460;11.868;2022-07-29T13:04:09;2.83;;;2.63;;
6358;SDS011;3212;51.460;11.868;2022-07-29T13:07:32;4.00;;;2.30;;
6358;SDS011;3212;51.460;11.868;2022-07-29T13:10:55;2.70;;;2.50;;
6358;SDS011;3212;51.460;11.868;2022-07-29T13:17:54;4.17;;;2.90;;
6358;SDS011;3212;51.460;11.868;2022-07-29T13:21:17;4.03;;;2.53;;
6358;SDS011;3212;51.460;11.868;2022-07-29T13:24:46;4.53;;;2.80;;
6358;SDS011;3212;51.460;11.868;2022-07-29T13:28:08;3.03;;;2.77;;
6358;SDS011;3212;51.460;11.868;2022-07-29T13:31:31;2.83;;;2.50;;
6358;SDS011;3212;51.460;11.868;2022-07-29T13:34:55;4.07;;;3.10;;
6358;SDS011;3212;51.460;11.868;2022-07-29T13:38:18;3.00;;;2.50;;
6358;SDS011;3212;51.460;11.868;2022-07-29T13:41:41;2.67;;;2.47;;
6358;SDS011;3212;51.460;11.868;2022-07-29T13:45:04;2.90;;;2.70;;
6358;SDS011;3212;51.460;11.868;2022-07-29T13:48:28;3.03;;;2.47;;
6358;SDS011;3212;51.460;11.868;2022-07-29T13:51:51;7.07;;;2.60;;
6358;SDS011;3212;51.460;11.868;2022-07-29T13:55:13;3.53;;;2.70;;
6358;SDS011;3212;51.460;11.868;2022-07-29T13:58:36;2.83;;;2.50;;
6358;SDS011;3212;51.460;11.868;2022-07-29T14:01:58;3.00;;;2.50;;
6358;SDS011;3212;51.460;11.868;2022-07-29T14:05:21;8.60;;;2.60;;
6358;SDS011;3212;51.460;11.868;2022-07-29T14:08:44;3.90;;;2.40;;
6358;SDS011;3212;51.460;11.868;2022-07-29T14:12:07;3.60;;;3.00;;
6358;SDS011;3212;51.460;11.868;2022-07-29T14:15:31;4.00;;;2.77;;
6358;SDS011;3212;51.460;11.868;2022-07-29T14:18:53;3.87;;;2.60;;
6358;SDS011;3212;51.460;11.868;2022-07-29T14:22:15;2.83;;;2.60;;
6358;SDS011;3212;51.460;11.868;2022-07-29T14:25:39;4.30;;;2.70;;
6358;SDS011;3212;51.460;11.868;2022-07-29T14:29:01;3.20;;;2.73;;
6358;SDS011;3212;51.460;11.868;2022-07-29T14:32:23;6.50;;;2.77;;
6358;SDS011;3212;51.460;11.868;2022-07-29T14:35:47;3.53;;;3.07;;
6358;SDS011;3212;51.460;11.868;2022-07-29T14:39:09;3.90;;;2.80;;
6358;SDS011;3212;51.460;11.868;2022-07-29T14:42:32;3.37;;;2.80;;
6358;SDS011;3212;51.460;11.868;2022-07-29T14:45:54;3.80;;;2.80;;
6358;SDS011;3212;51.460;11.868;2022-07-29T14:49:17;2.77;;;2.57;;
6358;SDS011;3212;51.460;11.868;2022-07-29T14:52:39;3.23;;;2.80;;
6358;SDS011;3212;51.460;11.868;2022-07-29T14:56:02;3.63;;;2.77;;
6358;SDS011;3212;51.460;11.868;2022-07-29T14:59:25;5.43;;;2.80;;
6358;SDS011;3212;51.460;11.868;2022-07-29T15:02:48;5.40;;;2.90;;
6358;SDS011;3212;51.460;11.868;2022-07-29T15:06:10;3.50;;;2.93;;
6358;SDS011;3212;51.460;11.868;2022-07-29T15:09:33;3.90;;;3.07;;
6358;SDS011;3212;51.460;11.868;2022-07-29T15:12:56;2.57;;;2.43;;
6358;SDS011;3212;51.460;11.868;2022-07-29T15:16:18;3.17;;;2.83;;
6358;SDS011;3212;51.460;11.868;2022-07-29T15:19:41;2.90;;;2.50;;
6358;SDS011;3212;51.460;11.868;2022-07-29T15:23:04;3.90;;;2.93;;
6358;SDS011;3212;51.460;11.868;2022-07-29T15:26:27;4.90;;;2.83;;
6358;SDS011;3212;51.460;11.868;2022-07-29T15:29:50;4.93;;;3.00;;
6358;SDS011;3212;51.460;11.868;2022-07-29T15:33:12;3.30;;;3.00;;
6358;SDS011;3212;51.460;11.868;2022-07-29T15:36:35;3.40;;;3.10;;
6358;SDS011;3212;51.460;11.868;2022-07-29T15:39:58;5.23;;;2.77;;
6358;SDS011;3212;51.460;11.868;2022-07-29T15:43:21;4.77;;;2.73;;
6358;SDS011;3212;51.460;11.868;2022-07-29T15:46:44;3.00;;;2.73;;
6358;SDS011;3212;51.460;11.868;2022-07-29T15:50:13;4.10;;;2.90;;
6358;SDS011;3212;51.460;11.868;2022-07-29T15:53:35;4.97;;;3.13;;
6358;SDS011;3212;51.460;11.868;2022-07-29T15:56:58;4.40;;;2.80;;
6358;SDS011;3212;51.460;11.868;2022-07-29T16:00:20;3.60;;;2.80;;
6358;SDS011;3212;51.460;11.868;2022-07-29T16:03:43;4.53;;;3.10;;
6358;SDS011;3212;51.460;11.868;2022-07-29T16:07:06;4.10;;;3.20;;
6358;SDS011;3212;51.460;11.868;2022-07-29T16:10:28;4.00;;;3.10;;
6358;SDS011;3212;51.460;11.868;2022-07-29T16:13:51;3.30;;;3.00;;
6358;SDS011;3212;51.460;11.868;2022-07-29T16:17:14;5.63;;;3.43;;
6358;SDS011;3212;51.460;11.868;2022-07-29T16:20:36;7.73;;;3.20;;
6358;SDS011;3212;51.460;11.868;2022-07-29T16:23:59;6.27;;;3.10;;
6358;SDS011;3212;51.460;11.868;2022-07-29T16:27:21;3.93;;;3.30;;
6358;SDS011;3212;51.460;11.868;2022-07-29T16:30:44;3.80;;;3.20;;
6358;SDS011;3212;51.460;11.868;2022-07-29T16:34:07;4.60;;;2.70;;
6358;SDS011;3212;51.460;11.868;2022-07-29T16:37:30;7.93;;;3.20;;
6358;SDS011;3212;51.460;11.868;2022-07-29T16:40:55;4.10;;;3.30;;
6358;SDS011;3212;51.460;11.868;2022-07-29T16:44:18;3.20;;;2.90;;
6358;SDS011;3212;51.460;11.868;2022-07-29T16:47:41;4.30;;;3.90;;
6358;SDS011;3212;51.460;11.868;2022-07-29T16:51:04;4.00;;;3.50;;
6358;SDS011;3212;51.460;11.868;2022-07-29T16:54:26;3.47;;;3.17;;
6358;SDS011;3212;51.460;11.868;2022-07-29T16:57:49;4.20;;;3.40;;
6358;SDS011;3212;51.460;11.868;2022-07-29T17:01:12;4.13;;;3.60;;
6358;SDS011;3212;51.460;11.868;2022-07-29T17:04:34;5.50;;;3.43;;
6358;SDS011;3212;51.460;11.868;2022-07-29T17:07:57;3.40;;;3.10;;
6358;SDS011;3212;51.460;11.868;2022-07-29T17:11:20;4.83;;;3.50;;
6358;SDS011;3212;51.460;11.868;2022-07-29T17:14:43;9.23;;;3.30;;
6358;SDS011;3212;51.460;11.868;2022-07-29T17:18:05;6.82;;;3.75;;
6358;SDS011;3212;51.460;11.868;2022-07-29T17:21:28;5.03;;;3.57;;
6358;SDS011;3212;51.460;11.868;2022-07-29T17:24:50;4.57;;;4.00;;
6358;SDS011;3212;51.460;11.868;2022-07-29T17:28:13;4.67;;;4.27;;
6358;SDS011;3212;51.460;11.868;2022-07-29T17:31:35;6.40;;;4.30;;
6358;SDS011;3212;51.460;11.868;2022-07-29T17:34:58;4.77;;;4.33;;
6358;SDS011;3212;51.460;11.868;2022-07-29T17:38:20;5.23;;;4.07;;
6358;SDS011;3212;51.460;11.868;2022-07-29T17:41:43;5.37;;;4.57;;
6358;SDS011;3212;51.460;11.868;2022-07-29T17:45:06;6.80;;;4.70;;
6358;SDS011;3212;51.460;11.868;2022-07-29T17:48:29;7.10;;;4.28;;
6358;SDS011;3212;51.460;11.868;2022-07-29T17:51:53;8.43;;;5.23;;
6358;SDS011;3212;51.460;11.868;2022-07-29T17:55:15;5.23;;;4.67;;
6358;SDS011;3212;51.460;11.868;2022-07-29T17:58:38;5.53;;;4.90;;
6358;SDS011;3212;51.460;11.868;2022-07-29T18:02:00;5.97;;;5.27;;
6358;SDS011;3212;51.460;11.868;2022-07-29T18:05:22;4.93;;;4.53;;
6358;SDS011;3212;51.460;11.868;2022-07-29T18:08:46;6.83;;;4.20;;
6358;SDS011;3212;51.460;11.868;2022-07-29T18:12:09;4.97;;;4.50;;
6358;SDS011;3212;51.460;11.868;2022-07-29T18:15:32;7.03;;;4.60;;
6358;SDS011;3212;51.460;11.868;2022-07-29T18:18:55;5.17;;;4.10;;
6358;SDS011;3212;51.460;11.868;2022-07-29T18:22:17;4.43;;;4.03;;
6358;SDS011;3212;51.460;11.868;2022-07-29T18:25:40;7.60;;;4.70;;
6358;SDS011;3212;51.460;11.868;2022-07-29T18:29:03;5.70;;;4.47;;
6358;SDS011;3212;51.460;11.868;2022-07-29T18:32:26;4.40;;;4.03;;
6358;SDS011;3212;51.460;11.868;2022-07-29T18:35:50;6.20;;;4.60;;
6358;SDS011;3212;51.460;11.868;2022-07-29T18:39:12;5.00;;;4.30;;
6358;SDS011;3212;51.460;11.868;2022-07-29T18:42:35;4.47;;;4.07;;
6358;SDS011;3212;51.460;11.868;2022-07-29T18:45:58;4.70;;;4.00;;
6358;SDS011;3212;51.460;11.868;2022-07-29T18:49:20;4.63;;;4.23;;
6358;SDS011;3212;51.460;11.868;2022-07-29T18:52:43;4.83;;;3.90;;
6358;SDS011;3212;51.460;11.868;2022-07-29T18:56:05;5.57;;;4.33;;
6358;SDS011;3212;51.460;11.868;2022-07-29T18:59:27;5.97;;;4.10;;
6358;SDS011;3212;51.460;11.868;2022-07-29T19:02:51;5.70;;;4.07;;
6358;SDS011;3212;51.460;11.868;2022-07-29T19:06:13;4.53;;;4.13;;
6358;SDS011;3212;51.460;11.868;2022-07-29T19:09:35;4.83;;;4.30;;
6358;SDS011;3212;51.460;11.868;2022-07-29T19:12:58;5.03;;;4.33;;
6358;SDS011;3212;51.460;11.868;2022-07-29T19:16:20;5.30;;;4.50;;
6358;SDS011;3212;51.460;11.868;2022-07-29T19:19:43;5.17;;;4.57;;
6358;SDS011;3212;51.460;11.868;2022-07-29T19:23:05;4.90;;;4.47;;
6358;SDS011;3212;51.460;11.868;2022-07-29T19:26:28;4.70;;;4.30;;
6358;SDS011;3212;51.460;11.868;2022-07-29T19:29:50;5.93;;;4.63;;
6358;SDS011;3212;51.460;11.868;2022-07-29T19:33:13;5.10;;;4.60;;
6358;SDS011;3212;51.460;11.868;2022-07-29T19:36:35;5.60;;;5.10;;
6358;SDS011;3212;51.460;11.868;2022-07-29T19:39:57;7.90;;;5.67;;
6358;SDS011;3212;51.460;11.868;2022-07-29T19:43:21;7.00;;;5.40;;
6358;SDS011;3212;51.460;11.868;2022-07-29T19:46:43;10.37;;;6.30;;
6358;SDS011;3212;51.460;11.868;2022-07-29T19:50:06;8.93;;;5.80;;
6358;SDS011;3212;51.460;11.868;2022-07-29T19:53:29;6.60;;;4.97;;
6358;SDS011;3212;51.460;11.868;2022-07-29T19:56:52;5.57;;;5.07;;
6358;SDS011;3212;51.460;11.868;2022-07-29T20:00:14;5.87;;;5.33;;
6358;SDS011;3212;51.460;11.868;2022-07-29T20:03:39;6.23;;;5.30;;
6358;SDS011;3212;51.460;11.868;2022-07-29T20:07:02;6.07;;;5.27;;
6358;SDS011;3212;51.460;11.868;2022-07-29T20:10:25;7.30;;;5.97;;
6358;SDS011;3212;51.460;11.868;2022-07-29T20:13:47;5.37;;;4.87;;
6358;SDS011;3212;51.460;11.868;2022-07-29T20:17:10;7.13;;;5.03;;
6358;SDS011;3212;51.460;11.868;2022-07-29T20:20:32;5.37;;;4.87;;
6358;SDS011;3212;51.460;11.868;2022-07-29T20:23:55;5.83;;;4.30;;
6358;SDS011;3212;51.460;11.868;2022-07-29T20:27:18;5.20;;;4.70;;
6358;SDS011;3212;51.460;11.868;2022-07-29T20:30:40;5.30;;;4.60;;
6358;SDS011;3212;51.460;11.868;2022-07-29T20:34:03;6.60;;;5.00;;
6358;SDS011;3212;51.460;11.868;2022-07-29T20:37:26;6.00;;;4.67;;
6358;SDS011;3212;51.460;11.868;2022-07-29T20:40:48;7.40;;;5.60;;
6358;SDS011;3212;51.460;11.868;2022-07-29T20:44:11;7.60;;;5.57;;
6358;SDS011;3212;51.460;11.868;2022-07-29T20:47:34;5.20;;;4.33;;
6358;SDS011;3212;51.460;11.868;2022-07-29T20:50:56;4.90;;;4.40;;
6358;SDS011;3212;51.460;11.868;2022-07-29T20:54:19;8.67;;;5.07;;
6358;SDS011;3212;51.460;11.868;2022-07-29T20:57:41;5.40;;;4.67;;
6358;SDS011;3212;51.460;11.868;2022-07-29T21:01:03;5.27;;;4.70;;
6358;SDS011;3212;51.460;11.868;2022-07-29T21:04:26;7.10;;;4.43;;
6358;SDS011;3212;51.460;11.868;2022-07-29T21:07:48;8.23;;;4.70;;
6358;SDS011;3212;51.460;11.868;2022-07-29T21:11:11;5.30;;;4.63;;
6358;SDS011;3212;51.460;11.868;2022-07-29T21:14:35;7.10;;;4.47;;
6358;SDS011;3212;51.460;11.868;2022-07-29T21:18:13;6.55;;;4.07;;
6358;SDS011;3212;51.460;11.868;2022-07-29T21:21:52;4.90;;;4.40;;
6358;SDS011;3212;51.460;11.868;2022-07-29T21:25:14;4.50;;;3.80;;
6358;SDS011;3212;51.460;11.868;2022-07-29T21:28:37;9.23;;;3.87;;
6358;SDS011;3212;51.460;11.868;2022-07-29T21:32:00;6.97;;;3.70;;